Time;durP1;ratioP1;P1;durP2;ratioP2;P2;SDS_P1;SDS_P2;PMS_P1;PMS_P2;Temp;Humidity;BMP_temperature;BMP_pressure;BME280_temperature;BME280_humidity;BME280_pressure;Samples;Min_cycle;Max_cycle;Signal;HPM_P1;HPM_P2
2021/06/20 00:00:20;;;;;;;32.97;19.50;;;15.80;99.90;;;;;;5071105;28;20276;-69
2021/06/20 00:02:47;;;;;;;31.92;17.75;;;15.70;99.90;;;;;;5082824;28;20066;-68
2021/06/20 00:05:31;;;;;;;27.23;15.60;;;15.70;99.90;;;;;;5077015;28;20041;-68
2021/06/20 00:08:00;;;;;;;29.77;16.75;;;15.70;99.90;;;;;;5081366;28;20127;-68
2021/06/20 00:10:27;;;;;;;31.27;17.98;;;15.70;99.90;;;;;;5066911;28;20041;-68
2021/06/20 00:12:54;;;;;;;33.00;18.75;;;15.70;99.90;;;;;;5078314;28;20056;-68
2021/06/20 00:15:21;;;;;;;35.22;21.25;;;15.70;99.90;;;;;;5069885;28;20056;-69
2021/06/20 00:17:47;;;;;;;33.47;18.92;;;15.70;99.90;;;;;;5077185;28;20433;-68
2021/06/20 00:20:16;;;;;;;36.40;18.08;;;15.70;99.90;;;;;;5070009;28;20048;-68
2021/06/20 00:22:42;;;;;;;36.67;18.88;;;15.70;99.90;;;;;;5081255;28;20068;-70
2021/06/20 00:25:09;;;;;;;22.20;14.87;;;15.70;99.90;;;;;;5069367;28;20041;-68
2021/06/20 00:27:35;;;;;;;30.10;18.23;;;15.70;99.90;;;;;;5076060;28;20048;-68
2021/06/20 00:30:00;;;;;;;36.33;20.15;;;15.70;99.90;;;;;;5072276;28;20057;-67
2021/06/20 00:32:26;;;;;;;36.63;22.77;;;15.80;99.90;;;;;;5080424;28;20047;-68
2021/06/20 00:34:53;;;;;;;37.63;21.13;;;15.90;99.90;;;;;;5072689;28;20076;-69
2021/06/20 00:37:19;;;;;;;129.85;34.55;;;15.90;99.90;;;;;;5077004;28;20048;-71
2021/06/20 00:39:44;;;;;;;64.40;28.00;;;15.60;99.90;;;;;;5079367;28;20041;-69
2021/06/20 00:42:10;;;;;;;77.78;32.72;;;15.30;99.90;;;;;;5082734;28;20086;-68
2021/06/20 00:44:47;;;;;;;70.25;31.20;;;15.30;99.90;;;;;;5071551;28;20409;-69
2021/06/20 00:47:12;;;;;;;130.32;32.70;;;15.20;99.90;;;;;;5077661;28;20037;-68
2021/06/20 00:49:38;;;;;;;70.63;26.27;;;15.20;99.90;;;;;;5073224;28;20108;-68
2021/06/20 00:52:05;;;;;;;57.40;25.15;;;15.10;99.90;;;;;;5076509;28;20045;-69
2021/06/20 00:54:31;;;;;;;82.57;30.85;;;15.10;99.90;;;;;;5069131;28;20049;-67
2021/06/20 00:56:57;;;;;;;79.75;30.25;;;15.10;99.90;;;;;;5076064;28;20052;-68
2021/06/20 00:59:24;;;;;;;76.15;28.50;;;15.10;99.90;;;;;;5068671;28;20045;-68
2021/06/20 01:01:50;;;;;;;76.57;28.55;;;15.10;99.90;;;;;;5072520;28;20041;-68
2021/06/20 01:04:15;;;;;;;72.63;26.42;;;15.00;99.90;;;;;;5081067;28;20044;-69
2021/06/20 01:06:41;;;;;;;81.28;31.80;;;15.00;99.90;;;;;;5075216;28;20041;-69
2021/06/20 01:09:07;;;;;;;69.38;24.80;;;15.00;99.90;;;;;;5068234;28;20055;-69
2021/06/20 01:11:34;;;;;;;84.00;32.55;;;15.00;99.90;;;;;;5075498;28;20037;-70
2021/06/20 01:14:00;;;;;;;90.68;32.20;;;15.00;99.90;;;;;;5083765;28;20072;-70
2021/06/20 01:16:27;;;;;;;112.35;37.55;;;15.00;99.90;;;;;;5084319;28;20521;-70
2021/06/20 01:18:54;;;;;;;42.65;16.80;;;15.00;99.90;;;;;;5067689;28;20124;-70
2021/06/20 01:21:20;;;;;;;58.90;24.50;;;15.00;99.90;;;;;;5073501;28;20404;-70
2021/06/20 01:23:46;;;;;;;59.33;24.42;;;15.00;99.90;;;;;;5086173;28;20059;-71
2021/06/20 01:26:12;;;;;;;76.35;28.77;;;15.00;99.90;;;;;;5066557;28;20120;-70
2021/06/20 01:29:02;;;;;;;74.57;29.98;;;15.00;99.90;;;;;;5084144;28;20051;-70
2021/06/20 01:31:31;;;;;;;54.42;21.35;;;15.00;99.90;;;;;;5085173;28;20044;-72
2021/06/20 01:33:57;;;;;;;62.35;26.05;;;14.90;99.90;;;;;;5085703;28;20040;-71
2021/06/20 01:36:23;;;;;;;52.13;18.98;;;14.90;99.90;;;;;;5072283;28;20040;-71
2021/06/20 01:38:48;;;;;;;61.15;22.33;;;14.90;99.90;;;;;;5078923;28;20094;-71
2021/06/20 01:41:14;;;;;;;53.47;21.65;;;14.90;99.90;;;;;;5071578;28;20095;-70
2021/06/20 01:43:40;;;;;;;74.57;28.35;;;14.90;99.90;;;;;;5078533;28;20052;-71
2021/06/20 01:46:06;;;;;;;72.60;26.13;;;14.90;99.90;;;;;;5084726;28;20060;-74
2021/06/20 01:48:32;;;;;;;65.78;25.98;;;15.00;99.90;;;;;;5078702;28;20123;-73
2021/06/20 01:50:58;;;;;;;69.25;26.13;;;14.90;99.90;;;;;;5071105;28;20049;-73
2021/06/20 01:53:24;;;;;;;67.35;24.15;;;15.00;99.90;;;;;;5073461;28;20053;-72
2021/06/20 01:55:50;;;;;;;51.70;22.75;;;14.90;99.90;;;;;;5077038;28;20170;-71
2021/06/20 01:58:18;;;;;;;38.05;16.38;;;15.00;99.90;;;;;;5077046;28;20068;-71
2021/06/20 02:00:47;;;;;;;43.35;19.70;;;15.00;99.90;;;;;;5083581;28;20061;-72
2021/06/20 02:03:25;;;;;;;42.95;17.40;;;15.00;99.90;;;;;;5075920;28;20045;-71
2021/06/20 02:05:52;;;;;;;34.10;14.13;;;15.00;99.90;;;;;;5082859;28;20048;-72
2021/06/20 02:08:19;;;;;;;43.78;17.92;;;15.00;99.90;;;;;;5076270;28;20049;-70
2021/06/20 02:10:49;;;;;;;51.63;19.30;;;15.00;99.90;;;;;;5083107;28;20048;-70
2021/06/20 02:13:16;;;;;;;30.38;12.90;;;15.00;99.90;;;;;;5075825;28;20037;-70
2021/06/20 02:15:42;;;;;;;46.00;18.50;;;15.00;99.90;;;;;;5083011;28;20052;-70
2021/06/20 02:18:08;;;;;;;45.28;19.27;;;15.10;99.90;;;;;;5077124;28;20041;-71
2021/06/20 02:20:34;;;;;;;26.95;14.15;;;15.10;99.90;;;;;;5081470;28;20052;-70
2021/06/20 02:23:00;;;;;;;44.97;19.73;;;15.20;99.90;;;;;;5079423;28;20094;-70
2021/06/20 02:25:26;;;;;;;64.85;25.27;;;15.20;99.90;;;;;;5079285;28;20040;-70
2021/06/20 02:27:54;;;;;;;52.13;21.75;;;15.20;99.90;;;;;;5081179;28;20402;-71
2021/06/20 02:30:21;;;;;;;50.17;21.67;;;15.30;99.90;;;;;;5078701;28;20097;-72
2021/06/20 02:32:49;;;;;;;65.93;23.60;;;15.30;99.90;;;;;;5082404;28;20060;-71
2021/06/20 02:35:15;;;;;;;70.57;27.88;;;15.40;99.90;;;;;;5076080;28;20059;-72
2021/06/20 02:37:43;;;;;;;60.58;25.42;;;15.50;99.90;;;;;;5083085;28;20041;-72
2021/06/20 02:40:09;;;;;;;65.43;28.27;;;15.50;99.90;;;;;;5074916;28;20045;-73
2021/06/20 02:42:35;;;;;;;67.05;28.20;;;15.50;99.90;;;;;;5078091;28;20068;-73
2021/06/20 02:45:04;;;;;;;82.03;31.60;;;15.60;99.90;;;;;;5074470;28;20067;-73
2021/06/20 02:47:29;;;;;;;68.13;26.65;;;15.60;99.90;;;;;;5080915;28;20045;-74
2021/06/20 02:49:55;;;;;;;67.28;26.92;;;15.60;99.90;;;;;;5073922;28;20041;-73
2021/06/20 02:52:21;;;;;;;53.95;20.02;;;15.70;99.90;;;;;;5070032;28;20109;-73
2021/06/20 02:54:50;;;;;;;76.88;28.35;;;15.70;99.90;;;;;;5066911;28;20049;-73
2021/06/20 02:57:21;;;;;;;58.83;23.73;;;15.80;99.90;;;;;;5077149;28;20044;-74
2021/06/20 02:59:48;;;;;;;76.53;29.83;;;15.80;99.90;;;;;;5083245;28;20055;-74
2021/06/20 03:02:13;;;;;;;85.65;31.17;;;15.90;99.90;;;;;;5076536;28;20041;-74
2021/06/20 03:04:39;;;;;;;76.82;31.17;;;15.80;99.90;;;;;;5083259;28;20049;-74
2021/06/20 03:07:05;;;;;;;78.47;31.27;;;15.90;99.90;;;;;;5072931;28;20127;-75
2021/06/20 03:09:34;;;;;;;70.20;29.27;;;15.90;99.90;;;;;;5082777;28;20044;-74
2021/06/20 03:12:01;;;;;;;80.20;31.58;;;15.90;99.90;;;;;;5070997;28;20504;-74
2021/06/20 03:14:27;;;;;;;80.40;31.40;;;16.00;99.90;;;;;;5082549;28;20053;-74
2021/06/20 03:16:52;;;;;;;88.43;32.30;;;16.00;99.90;;;;;;5075451;28;20120;-74
2021/06/20 03:19:18;;;;;;;86.43;32.35;;;16.00;99.90;;;;;;5082334;28;20060;-75
2021/06/20 03:21:44;;;;;;;84.85;31.60;;;16.00;99.90;;;;;;5075958;28;20556;-74
2021/06/20 03:24:10;;;;;;;69.60;25.40;;;16.00;99.90;;;;;;5082465;28;20048;-74
2021/06/20 03:26:36;;;;;;;78.72;30.98;;;16.10;99.90;;;;;;5077429;28;20045;-74
2021/06/20 03:29:03;;;;;;;78.38;32.70;;;16.10;99.90;;;;;;5080694;28;20047;-74
2021/06/20 03:31:29;;;;;;;80.68;31.67;;;16.10;99.90;;;;;;5078107;28;20052;-72
2021/06/20 03:33:58;;;;;;;91.63;34.03;;;16.10;99.90;;;;;;5078446;28;20113;-72
2021/06/20 03:36:25;;;;;;;84.22;29.80;;;16.10;99.90;;;;;;5082945;28;20071;-72
2021/06/20 03:38:50;;;;;;;91.50;35.80;;;16.10;99.90;;;;;;5083089;28;20040;-72
2021/06/20 03:41:16;;;;;;;79.60;29.83;;;16.20;99.90;;;;;;5078008;28;20045;-73
2021/06/20 03:43:42;;;;;;;90.70;37.70;;;16.20;99.90;;;;;;5075391;28;20100;-73
2021/06/20 03:46:09;;;;;;;98.13;41.17;;;16.20;99.90;;;;;;5081928;28;20048;-73
2021/06/20 03:48:36;;;;;;;107.28;42.90;;;16.20;99.90;;;;;;5074866;28;20071;-73
2021/06/20 03:51:02;;;;;;;107.20;43.33;;;16.20;99.90;;;;;;5081039;28;20046;-73
2021/06/20 03:53:28;;;;;;;110.57;43.78;;;16.30;99.90;;;;;;5082962;28;20043;-74
2021/06/20 03:55:56;;;;;;;102.05;40.75;;;16.30;99.90;;;;;;5076448;28;20040;-73
2021/06/20 03:58:22;;;;;;;110.75;41.53;;;16.20;99.90;;;;;;5070019;28;20091;-73
2021/06/20 04:00:48;;;;;;;112.78;44.67;;;16.30;99.90;;;;;;5076423;28;20040;-72
2021/06/20 04:03:14;;;;;;;104.50;38.78;;;16.30;99.90;;;;;;5083680;28;20049;-73
2021/06/20 04:05:40;;;;;;;97.97;38.15;;;16.40;99.90;;;;;;5080863;28;20041;-73
2021/06/20 04:08:06;;;;;;;104.80;44.28;;;16.40;99.90;;;;;;5073534;28;20044;-72
2021/06/20 04:10:32;;;;;;;110.90;47.17;;;16.50;99.90;;;;;;5073627;28;20140;-72
2021/06/20 04:12:59;;;;;;;109.82;45.72;;;16.50;99.90;;;;;;5087176;28;20068;-72
2021/06/20 04:15:26;;;;;;;106.10;43.00;;;16.50;99.90;;;;;;5079819;28;20078;-71
2021/06/20 04:17:51;;;;;;;100.90;45.85;;;16.50;99.90;;;;;;5087126;28;20075;-71
2021/06/20 04:20:17;;;;;;;112.25;44.20;;;16.60;99.90;;;;;;5080122;28;20049;-72
2021/06/20 04:22:44;;;;;;;114.82;44.63;;;16.60;99.90;;;;;;5086011;28;20490;-71
2021/06/20 04:25:13;;;;;;;105.03;47.13;;;16.60;99.90;;;;;;5078645;28;20067;-70
2021/06/20 04:27:43;;;;;;;117.70;48.33;;;16.60;99.90;;;;;;5086464;28;20037;-71
2021/06/20 04:30:12;;;;;;;121.97;48.53;;;16.70;99.90;;;;;;5079080;28;20044;-71
2021/06/20 04:32:42;;;;;;;117.82;47.88;;;16.70;99.90;;;;;;5080077;28;20045;-71
2021/06/20 04:35:11;;;;;;;104.25;44.05;;;16.70;99.90;;;;;;5073352;28;20048;-71
2021/06/20 04:37:37;;;;;;;105.97;44.80;;;16.70;99.90;;;;;;5085364;28;20135;-69
2021/06/20 04:40:04;;;;;;;118.05;44.92;;;16.70;99.90;;;;;;5082214;28;20076;-70
2021/06/20 04:42:38;;;;;;;122.43;45.90;;;16.80;99.90;;;;;;5083221;28;20048;-71
2021/06/20 04:45:06;;;;;;;106.95;46.65;;;16.70;99.90;;;;;;5082123;28;20059;-69
2021/06/20 04:47:32;;;;;;;126.75;47.90;;;16.80;99.90;;;;;;5081625;28;20733;-71
2021/06/20 04:49:58;;;;;;;115.20;47.10;;;16.80;99.90;;;;;;5084428;28;20079;-71
2021/06/20 04:52:24;;;;;;;117.10;46.50;;;16.80;99.90;;;;;;5071886;28;20045;-69
2021/06/20 04:54:51;;;;;;;110.35;45.92;;;16.80;99.90;;;;;;5085435;28;20040;-69
2021/06/20 04:57:19;;;;;;;;;;;16.90;99.90;;;;;;5075255;28;20048;-69
2021/06/20 04:59:45;;;;;;;107.10;45.83;;;17.00;99.90;;;;;;5080942;28;19920;-69
2021/06/20 05:02:11;;;;;;;101.15;45.83;;;17.00;99.90;;;;;;5074227;28;20049;-69
2021/06/20 05:04:37;;;;;;;104.45;47.55;;;17.00;99.90;;;;;;5080773;28;20048;-69
2021/06/20 05:07:03;;;;;;;104.40;46.25;;;17.00;99.90;;;;;;5073808;28;20049;-69
2021/06/20 05:09:29;;;;;;;92.45;47.97;;;17.10;99.90;;;;;;5080380;28;20056;-70
2021/06/20 05:11:55;;;;;;;101.20;45.42;;;17.10;99.90;;;;;;5072987;28;20136;-69
2021/06/20 05:14:21;;;;;;;92.20;44.83;;;17.10;99.90;;;;;;5079497;28;20048;-69
2021/06/20 05:16:47;;;;;;;86.75;42.97;;;17.10;99.90;;;;;;5073226;28;20056;-71
2021/06/20 05:19:13;;;;;;;84.90;44.85;;;17.10;99.90;;;;;;5079775;28;20046;-69
2021/06/20 05:21:39;;;;;;;82.22;42.65;;;17.10;99.90;;;;;;5085630;28;20045;-69
2021/06/20 05:24:05;;;;;;;84.43;43.90;;;17.10;99.90;;;;;;5079819;28;20362;-70
2021/06/20 05:26:31;;;;;;;83.35;45.35;;;17.10;99.90;;;;;;5080641;28;20048;-69
2021/06/20 05:28:57;;;;;;;85.43;44.45;;;17.20;99.90;;;;;;5077158;28;20048;-69
2021/06/20 05:31:23;;;;;;;87.05;46.25;;;17.20;99.90;;;;;;5076982;28;20105;-69
2021/06/20 05:33:49;;;;;;;94.40;49.03;;;17.20;99.90;;;;;;5075208;28;20045;-69
2021/06/20 05:36:14;;;;;;;91.90;47.70;;;17.20;99.90;;;;;;5078907;28;20049;-69
2021/06/20 05:38:40;;;;;;;96.22;47.75;;;17.30;99.90;;;;;;5073511;28;20045;-69
2021/06/20 05:41:06;;;;;;;95.18;49.90;;;17.30;99.90;;;;;;5081032;28;20107;-68
2021/06/20 05:43:32;;;;;;;101.97;49.83;;;17.40;99.90;;;;;;5080915;28;20061;-69
2021/06/20 05:45:58;;;;;;;75.30;44.92;;;17.40;99.90;;;;;;5079105;28;20052;-69
2021/06/20 05:48:23;;;;;;;75.75;44.75;;;17.50;99.90;;;;;;5072303;28;20472;-69
2021/06/20 05:50:49;;;;;;;73.05;43.50;;;17.50;99.90;;;;;;5079876;28;20078;-69
2021/06/20 05:53:15;;;;;;;82.47;47.65;;;17.60;99.90;;;;;;5067827;28;20040;-69
2021/06/20 05:55:41;;;;;;;68.35;43.13;;;17.60;99.90;;;;;;5074793;28;20045;-69
2021/06/20 05:58:07;;;;;;;81.45;46.35;;;17.80;99.90;;;;;;5081530;28;20055;-69
2021/06/20 06:00:33;;;;;;;64.78;40.22;;;17.80;99.90;;;;;;5065329;28;20053;-69
2021/06/20 06:02:59;;;;;;;67.95;41.70;;;17.90;99.90;;;;;;5083395;28;20451;-68
2021/06/20 06:05:26;;;;;;;64.93;41.77;;;17.90;99.90;;;;;;5073321;28;20074;-69
2021/06/20 06:07:53;;;;;;;67.30;40.58;;;17.90;99.90;;;;;;5084657;28;20052;-69
2021/06/20 06:10:18;;;;;;;57.00;34.58;;;17.90;99.90;;;;;;5072716;28;20106;-70
2021/06/20 06:12:45;;;;;;;70.43;42.25;;;17.90;99.90;;;;;;5084803;28;20469;-68
2021/06/20 06:15:11;;;;;;;69.60;43.45;;;17.90;99.90;;;;;;5073296;28;20049;-68
2021/06/20 06:17:37;;;;;;;59.13;39.10;;;18.00;99.90;;;;;;5080650;28;20059;-68
2021/06/20 06:20:04;;;;;;;64.63;41.38;;;18.00;99.90;;;;;;5072538;28;20048;-68
2021/06/20 06:22:30;;;;;;;62.97;41.65;;;18.00;99.90;;;;;;5080246;28;20044;-68
2021/06/20 06:24:56;;;;;;;69.85;42.15;;;18.00;99.90;;;;;;5073751;28;20047;-68
2021/06/20 06:27:22;;;;;;;70.05;42.65;;;18.00;99.90;;;;;;5077498;28;20036;-68
2021/06/20 06:29:48;;;;;;;62.83;39.10;;;18.10;99.90;;;;;;5075623;28;20488;-68
2021/06/20 06:32:14;;;;;;;72.35;41.60;;;18.10;99.90;;;;;;5072117;28;20064;-67
2021/06/20 06:34:40;;;;;;;68.97;43.35;;;18.10;99.90;;;;;;5077854;28;20045;-67
2021/06/20 06:37:06;;;;;;;57.13;38.22;;;18.20;99.90;;;;;;5073462;28;20052;-67
2021/06/20 06:39:32;;;;;;;55.97;36.35;;;18.20;99.90;;;;;;5079491;28;20060;-68
2021/06/20 06:41:59;;;;;;;56.50;35.25;;;18.10;99.90;;;;;;5076653;28;20036;-67
2021/06/20 06:44:26;;;;;;;46.33;31.40;;;18.10;99.90;;;;;;5079747;28;20074;-68
2021/06/20 06:46:52;;;;;;;37.15;27.13;;;18.00;99.90;;;;;;5073176;28;20051;-67
2021/06/20 06:49:19;;;;;;;43.50;27.55;;;17.90;99.90;;;;;;5079384;28;20426;-66
2021/06/20 06:51:44;;;;;;;34.50;23.33;;;17.80;99.90;;;;;;5068336;28;20036;-65
2021/06/20 06:54:10;;;;;;;33.90;23.65;;;17.80;99.90;;;;;;5075179;28;20048;-65
2021/06/20 06:56:36;;;;;;;32.97;22.92;;;17.70;99.90;;;;;;5084083;28;20040;-65
2021/06/20 06:59:03;;;;;;;27.13;18.05;;;17.70;99.90;;;;;;5074176;28;20491;-66
2021/06/20 07:01:29;;;;;;;26.70;17.77;;;17.60;99.90;;;;;;5080929;28;20041;-66
2021/06/20 07:03:55;;;;;;;25.20;16.80;;;17.60;99.90;;;;;;5074008;28;20045;-66
2021/06/20 07:06:21;;;;;;;16.08;12.23;;;17.80;99.90;;;;;;5080629;28;20083;-66
2021/06/20 07:08:48;;;;;;;19.55;13.55;;;17.90;99.90;;;;;;5073567;28;20044;-66
2021/06/20 07:11:14;;;;;;;12.98;10.57;;;18.10;99.90;;;;;;5080312;28;20046;-66
2021/06/20 07:13:41;;;;;;;12.88;8.35;;;17.90;99.90;;;;;;5073055;28;20051;-66
2021/06/20 07:16:06;;;;;;;10.17;7.93;;;17.80;99.90;;;;;;5079716;28;20411;-65
2021/06/20 07:18:33;;;;;;;10.18;6.78;;;17.80;99.90;;;;;;5079855;28;20310;-65
2021/06/20 07:20:59;;;;;;;8.30;6.38;;;17.60;99.90;;;;;;5080025;28;20037;-66
2021/06/20 07:23:26;;;;;;;9.40;5.70;;;17.60;99.90;;;;;;5083609;28;20044;-65
2021/06/20 07:25:51;;;;;;;7.05;4.90;;;17.50;99.90;;;;;;5079248;28;20041;-65
2021/06/20 07:28:17;;;;;;;6.70;4.18;;;17.60;99.90;;;;;;5080990;28;20083;-65
2021/06/20 07:30:48;;;;;;;6.22;4.20;;;17.60;99.90;;;;;;5077874;28;20040;-65
2021/06/20 07:33:14;;;;;;;6.25;3.65;;;17.70;99.90;;;;;;5077663;28;20040;-65
2021/06/20 07:35:40;;;;;;;6.13;3.42;;;17.70;99.90;;;;;;5081136;28;20499;-65
2021/06/20 07:38:05;;;;;;;4.82;3.42;;;17.70;99.90;;;;;;5076918;28;20112;-66
2021/06/20 07:40:31;;;;;;;4.78;3.35;;;18.00;99.90;;;;;;5077735;28;20037;-66
2021/06/20 07:42:57;;;;;;;4.85;3.03;;;18.10;99.90;;;;;;5082463;28;20055;-66
2021/06/20 07:45:23;;;;;;;4.10;2.70;;;18.50;99.90;;;;;;5072300;28;20052;-66
2021/06/20 07:47:49;;;;;;;3.30;2.20;;;18.60;99.90;;;;;;5080215;28;20044;-66
2021/06/20 07:50:15;;;;;;;4.80;2.40;;;18.80;99.90;;;;;;5083224;28;20032;-66
2021/06/20 07:52:41;;;;;;;3.53;2.50;;;19.00;99.90;;;;;;5082483;28;20048;-66
2021/06/20 07:55:09;;;;;;;4.85;2.55;;;19.10;99.90;;;;;;5082513;28;20094;-66
2021/06/20 07:57:34;;;;;;;;;;;19.10;99.90;;;;;;5074905;28;20492;-66
2021/06/20 08:00:02;;;;;;;4.95;2.10;;;19.10;99.90;;;;;;5082084;28;19928;-66
2021/06/20 08:02:28;;;;;;;5.97;1.80;;;19.10;99.90;;;;;;5081912;28;20072;-66
2021/06/20 08:04:53;;;;;;;5.10;2.05;;;19.20;99.90;;;;;;5077726;28;20041;-66
2021/06/20 08:07:19;;;;;;;6.68;2.20;;;19.40;99.90;;;;;;5078729;28;20582;-66
2021/06/20 08:09:45;;;;;;;4.72;2.10;;;19.50;99.90;;;;;;5079370;28;20070;-66
2021/06/20 08:12:11;;;;;;;4.63;2.38;;;19.60;99.90;;;;;;5083199;28;20118;-66
2021/06/20 08:14:38;;;;;;;4.70;2.00;;;19.50;99.90;;;;;;5071521;28;20036;-67
2021/06/20 08:17:04;;;;;;;3.43;2.00;;;19.80;99.90;;;;;;5081855;28;20059;-67
2021/06/20 08:19:30;;;;;;;6.77;2.07;;;19.60;99.90;;;;;;5077774;28;20120;-67
2021/06/20 08:21:56;;;;;;;4.15;2.08;;;19.60;99.90;;;;;;5075131;28;20306;-66
2021/06/20 08:24:22;;;;;;;2.35;1.83;;;19.50;99.90;;;;;;5080391;28;20044;-66
2021/06/20 08:26:48;;;;;;;8.15;2.33;;;19.50;99.90;;;;;;5070984;28;20044;-66
2021/06/20 08:29:14;;;;;;;4.72;2.58;;;19.40;99.90;;;;;;5082540;28;20049;-66
2021/06/20 08:31:41;;;;;;;5.47;2.40;;;19.30;99.90;;;;;;5072068;28;20048;-66
2021/06/20 08:34:07;;;;;;;5.75;2.17;;;19.30;99.90;;;;;;5075032;28;20040;-66
2021/06/20 08:36:34;;;;;;;4.43;1.97;;;19.30;99.90;;;;;;5073838;28;20100;-66
2021/06/20 08:39:00;;;;;;;9.05;2.20;;;19.10;99.90;;;;;;5080096;28;20151;-66
2021/06/20 08:41:29;;;;;;;5.60;2.10;;;19.30;99.90;;;;;;5078966;28;20071;-66
2021/06/20 08:43:55;;;;;;;7.05;2.08;;;19.40;99.90;;;;;;5078540;28;20136;-66
2021/06/20 08:46:21;;;;;;;4.22;2.00;;;19.50;99.90;;;;;;5076845;28;20040;-66
2021/06/20 08:48:47;;;;;;;6.85;2.25;;;19.60;99.90;;;;;;5074845;28;20070;-66
2021/06/20 08:51:12;;;;;;;5.15;1.88;;;19.90;99.90;;;;;;5084023;28;20044;-66
2021/06/20 08:53:38;;;;;;;5.68;1.90;;;20.10;99.90;;;;;;5083106;28;20040;-66
2021/06/20 08:56:04;;;;;;;4.43;1.75;;;20.00;99.90;;;;;;5084893;28;20076;-66
2021/06/20 08:58:34;;;;;;;5.13;2.05;;;19.90;99.90;;;;;;5085605;28;20040;-66
2021/06/20 09:01:03;;;;;;;4.82;1.80;;;19.90;99.90;;;;;;5085896;28;20056;-66
2021/06/20 09:03:44;;;;;;;3.72;1.65;;;19.90;99.90;;;;;;5086098;28;20044;-67
2021/06/20 09:06:21;;;;;;;5.28;1.90;;;20.20;99.90;;;;;;5077580;28;20045;-67
2021/06/20 09:08:58;;;;;;;3.08;1.52;;;20.00;99.90;;;;;;5084802;28;20045;-67
2021/06/20 09:11:44;;;;;;;3.40;1.55;;;19.80;99.90;;;;;;5084664;28;20123;-67
2021/06/20 09:14:16;;;;;;;4.63;1.45;;;19.80;99.90;;;;;;5073205;28;20107;-66
2021/06/20 09:16:53;;;;;;;4.93;1.63;;;19.80;99.90;;;;;;5083857;28;20092;-66
2021/06/20 09:19:33;;;;;;;2.85;1.38;;;20.00;99.90;;;;;;5079775;28;20068;-66
2021/06/20 09:22:04;;;;;;;4.15;1.30;;;20.00;99.90;;;;;;5080046;28;20037;-67
2021/06/20 09:24:30;;;;;;;2.60;1.20;;;19.90;99.90;;;;;;5081434;28;20050;-67
2021/06/20 09:26:58;;;;;;;1.33;1.10;;;19.80;99.90;;;;;;5078553;28;20052;-67
2021/06/20 09:29:38;;;;;;;;;;;19.90;99.90;;;;;;5083433;28;20044;-67
2021/06/20 09:32:06;;;;;;;2.90;1.58;;;19.80;99.90;;;;;;5078426;28;20007;-66
2021/06/20 09:34:42;;;;;;;5.72;1.33;;;19.90;99.90;;;;;;5082749;28;20061;-66
2021/06/20 09:37:08;;;;;;;4.82;1.23;;;20.20;99.90;;;;;;5077582;28;20053;-66
2021/06/20 09:39:34;;;;;;;4.00;1.02;;;20.00;99.90;;;;;;5082458;28;20056;-66
2021/06/20 09:42:03;;;;;;;5.72;1.52;;;20.20;99.90;;;;;;5075938;28;20137;-66
2021/06/20 09:44:57;;;;;;;3.58;1.55;;;20.30;99.90;;;;;;5080641;28;20510;-66
2021/06/20 09:47:26;;;;;;;3.47;1.63;;;20.30;99.90;;;;;;5077642;28;20099;-66
2021/06/20 09:49:54;;;;;;;3.03;1.20;;;20.20;99.90;;;;;;5082116;28;20045;-66
2021/06/20 09:52:28;;;;;;;1.92;1.20;;;19.90;99.90;;;;;;5075347;28;20045;-66
2021/06/20 09:54:56;;;;;;;5.47;1.38;;;20.20;99.90;;;;;;5081181;28;20036;-66
2021/06/20 09:57:23;;;;;;;4.00;1.52;;;20.40;99.90;;;;;;5081407;28;20037;-66
2021/06/20 09:59:58;;;;;;;3.45;1.23;;;20.80;99.90;;;;;;5072523;28;20048;-66
2021/06/20 10:02:35;;;;;;;3.25;1.38;;;20.80;99.90;;;;;;5082253;28;20396;-66
2021/06/20 10:05:01;;;;;;;4.80;1.67;;;20.60;99.90;;;;;;5078212;28;20041;-66
2021/06/20 10:07:30;;;;;;;5.57;1.27;;;20.30;99.90;;;;;;5071508;28;20102;-66
2021/06/20 10:09:58;;;;;;;6.25;1.35;;;20.50;99.90;;;;;;5079209;28;20040;-66
2021/06/20 10:12:24;;;;;;;2.13;1.10;;;20.60;99.90;;;;;;5084597;28;20551;-66
2021/06/20 10:14:53;;;;;;;2.80;1.35;;;20.60;99.90;;;;;;5083721;28;20096;-67
2021/06/20 10:17:32;;;;;;;4.03;1.38;;;20.70;99.90;;;;;;5084298;28;20066;-66
2021/06/20 10:20:06;;;;;;;2.83;1.30;;;20.60;99.90;;;;;;5077864;28;20427;-66
2021/06/20 10:22:42;;;;;;;2.53;0.93;;;20.60;99.90;;;;;;5083767;28;20062;-66
2021/06/20 10:25:22;;;;;;;2.92;1.35;;;21.00;99.90;;;;;;5077002;28;20044;-66
2021/06/20 10:27:57;;;;;;;3.40;1.27;;;21.20;99.90;;;;;;5083919;28;20048;-67
2021/06/20 10:30:24;;;;;;;1.52;0.77;;;21.00;99.90;;;;;;5081715;28;20033;-66
2021/06/20 10:32:51;;;;;;;2.38;0.88;;;20.70;99.90;;;;;;5082301;28;20149;-67
2021/06/20 10:35:24;;;;;;;3.25;0.80;;;20.50;99.90;;;;;;5076673;28;20071;-66
2021/06/20 10:37:52;;;;;;;3.65;1.15;;;20.20;99.90;;;;;;5069361;28;20042;-66
2021/06/20 10:40:31;;;;;;;2.92;0.80;;;20.20;99.90;;;;;;5076214;28;20048;-66
2021/06/20 10:43:11;;;;;;;1.45;0.90;;;20.20;99.90;;;;;;5068784;28;20054;-67
2021/06/20 10:45:38;;;;;;;5.88;1.10;;;20.30;99.90;;;;;;5075866;28;20060;-67
2021/06/20 10:48:20;;;;;;;1.95;0.70;;;20.70;99.90;;;;;;5082094;28;20046;-67
2021/06/20 10:50:58;;;;;;;2.63;0.80;;;20.70;99.90;;;;;;5067940;28;20041;-67
2021/06/20 10:53:25;;;;;;;3.33;0.80;;;20.80;99.90;;;;;;5065515;28;20096;-67
2021/06/20 10:56:00;;;;;;;1.30;0.60;;;21.10;99.90;;;;;;5070797;28;20424;-67
2021/06/20 10:58:31;;;;;;;3.45;1.05;;;21.10;99.90;;;;;;5078087;28;20068;-67
2021/06/20 11:01:15;;;;;;;1.17;0.60;;;20.90;99.90;;;;;;5070412;28;20041;-67
2021/06/20 11:03:51;;;;;;;6.00;1.10;;;21.00;99.90;;;;;;5077875;28;20048;-67
2021/06/20 11:06:24;;;;;;;3.40;0.82;;;21.00;99.90;;;;;;5070888;28;20236;-67
2021/06/20 11:08:53;;;;;;;2.80;0.90;;;20.70;99.90;;;;;;5083645;28;20040;-67
2021/06/20 11:11:30;;;;;;;3.65;0.75;;;20.80;99.90;;;;;;5077734;28;20045;-68
2021/06/20 11:13:56;;;;;;;5.10;1.33;;;21.00;99.90;;;;;;5070332;28;20036;-67
2021/06/20 11:16:39;;;;;;;1.55;0.77;;;21.00;99.90;;;;;;5077238;28;20041;-67
2021/06/20 11:19:08;;;;;;;4.20;1.10;;;21.00;99.90;;;;;;5070008;28;20251;-68
2021/06/20 11:21:36;;;;;;;4.15;1.23;;;20.80;99.90;;;;;;5077417;28;20114;-68
2021/06/20 11:24:03;;;;;;;2.88;1.15;;;20.80;99.90;;;;;;5082230;28;20044;-68
2021/06/20 11:26:28;;;;;;;6.03;1.17;;;20.80;99.90;;;;;;5078372;28;20040;-68
2021/06/20 11:29:12;;;;;;;2.20;1.35;;;20.70;99.90;;;;;;5066607;28;20500;-68
2021/06/20 11:31:50;;;;;;;3.35;1.10;;;20.30;99.90;;;;;;5077218;28;20045;-68
2021/06/20 11:34:16;;;;;;;4.85;1.42;;;20.50;99.90;;;;;;5081182;28;20051;-68
2021/06/20 11:36:41;;;;;;;2.78;1.20;;;20.30;99.90;;;;;;5078036;28;20037;-68
2021/06/20 11:39:12;;;;;;;3.65;1.42;;;20.30;99.90;;;;;;5079362;28;20043;-66
2021/06/20 11:41:44;;;;;;;6.65;1.65;;;20.30;99.90;;;;;;5079135;28;20048;-68
2021/06/20 11:44:10;;;;;;;3.70;1.33;;;20.30;99.90;;;;;;5078122;28;20060;-66
2021/06/20 11:46:36;;;;;;;4.10;1.25;;;20.30;99.90;;;;;;5079910;28;20041;-67
2021/06/20 11:49:06;;;;;;;4.80;1.63;;;20.20;99.90;;;;;;5074933;28;20128;-67
2021/06/20 11:51:55;;;;;;;5.28;1.52;;;20.10;99.90;;;;;;5080441;28;20765;-67
2021/06/20 11:54:27;;;;;;;5.18;1.20;;;19.90;99.90;;;;;;5071268;28;20100;-68
2021/06/20 11:57:04;;;;;;;5.35;1.95;;;19.60;99.90;;;;;;5078318;28;20078;-68
2021/06/20 11:59:40;;;;;;;28.40;1.75;;;19.60;99.90;;;;;;5068656;28;20567;-68
2021/06/20 12:02:11;;;;;;;7.95;2.05;;;19.80;99.90;;;;;;5063414;28;20045;-69
2021/06/20 12:04:45;;;;;;;4.05;1.00;;;20.20;99.90;;;;;;5070963;28;20045;-67
2021/06/20 12:07:12;;;;;;;8.27;1.92;;;20.30;99.90;;;;;;5063650;28;20047;-67
2021/06/20 12:09:38;;;;;;;7.90;1.83;;;20.50;99.90;;;;;;5071192;28;20079;-67
2021/06/20 12:12:11;;;;;;;8.75;1.92;;;20.70;99.90;;;;;;5077667;28;20307;-67
2021/06/20 12:14:37;;;;;;;7.35;1.77;;;20.80;99.90;;;;;;5069332;28;20454;-67
2021/06/20 12:17:05;;;;;;;7.07;1.85;;;20.60;99.90;;;;;;5080377;28;20094;-67
2021/06/20 12:19:36;;;;;;;6.40;1.40;;;20.40;99.90;;;;;;5075366;28;20492;-67
2021/06/20 12:22:11;;;;;;;8.27;1.73;;;20.10;99.90;;;;;;5077682;28;20075;-67
2021/06/20 12:24:46;;;;;;;7.72;1.73;;;19.90;99.90;;;;;;5071953;28;20051;-67
2021/06/20 12:27:13;;;;;;;5.45;1.60;;;19.70;99.90;;;;;;5083231;28;20480;-67
2021/06/20 12:29:39;;;;;;;;;;;19.50;99.90;;;;;;5084440;28;20049;-67
2021/06/20 12:32:13;;;;;;;5.82;1.70;;;19.50;99.90;;;;;;5080615;28;19939;-67
2021/06/20 12:34:50;;;;;;;7.97;1.70;;;19.30;99.90;;;;;;5073638;28;20040;-67
2021/06/20 12:37:18;;;;;;;12.95;2.28;;;19.20;99.90;;;;;;5082657;28;20064;-67
2021/06/20 12:39:45;;;;;;;6.80;1.48;;;19.20;99.90;;;;;;5084565;28;20036;-67